sensor_id;sensor_type;location;lat;lon;timestamp;pressure;altitude;pressure_sealevel;temperature;humidity
15272;BME280;7737;51.578;7.268;2023-07-31T00:02:13;100644.91;;;16.51;100.00
15272;BME280;7737;51.578;7.268;2023-07-31T00:04:39;100647.59;;;16.51;100.00
15272;BME280;7737;51.578;7.268;2023-07-31T00:07:06;100641.09;;;16.55;100.00
15272;BME280;7737;51.578;7.268;2023-07-31T00:09:33;100637.09;;;16.48;100.00
15272;BME280;7737;51.578;7.268;2023-07-31T00:12:01;100628.03;;;16.37;100.00
15272;BME280;7737;51.578;7.268;2023-07-31T00:14:27;100629.25;;;16.44;100.00
15272;BME280;7737;51.578;7.268;2023-07-31T00:16:54;100628.53;;;16.42;100.00
15272;BME280;7737;51.578;7.268;2023-07-31T00:19:20;100623.75;;;16.35;100.00
15272;BME280;7737;51.578;7.268;2023-07-31T00:21:47;100618.75;;;16.41;100.00
15272;BME280;7737;51.578;7.268;2023-07-31T00:24:13;100614.88;;;16.45;100.00
15272;BME280;7737;51.578;7.268;2023-07-31T00:26:40;100618.75;;;16.41;100.00
15272;BME280;7737;51.578;7.268;2023-07-31T00:29:08;100620.75;;;16.51;100.00
15272;BME280;7737;51.578;7.268;2023-07-31T00:31:34;100607.56;;;16.48;100.00
15272;BME280;7737;51.578;7.268;2023-07-31T00:34:01;100611.28;;;16.34;100.00
15272;BME280;7737;51.578;7.268;2023-07-31T00:36:27;100610.63;;;16.43;100.00
15272;BME280;7737;51.578;7.268;2023-07-31T00:38:54;100609.28;;;16.49;100.00
15272;BME280;7737;51.578;7.268;2023-07-31T00:41:20;100615.25;;;16.52;100.00
15272;BME280;7737;51.578;7.268;2023-07-31T00:43:47;100614.75;;;16.60;100.00
15272;BME280;7737;51.578;7.268;2023-07-31T00:46:15;100611.06;;;16.61;100.00
15272;BME280;7737;51.578;7.268;2023-07-31T00:48:41;100611.81;;;16.63;100.00
15272;BME280;7737;51.578;7.268;2023-07-31T00:51:09;100606.84;;;16.69;100.00
15272;BME280;7737;51.578;7.268;2023-07-31T00:53:35;100603.19;;;16.70;100.00
15272;BME280;7737;51.578;7.268;2023-07-31T00:56:03;100602.31;;;16.70;100.00
15272;BME280;7737;51.578;7.268;2023-07-31T00:58:30;100611.34;;;16.69;100.00
15272;BME280;7737;51.578;7.268;2023-07-31T01:00:56;100600.72;;;16.67;100.00
15272;BME280;7737;51.578;7.268;2023-07-31T01:03:25;100606.38;;;16.75;100.00
15272;BME280;7737;51.578;7.268;2023-07-31T01:05:58;100608.28;;;16.73;100.00
15272;BME280;7737;51.578;7.268;2023-07-31T01:08:32;100609.06;;;16.75;100.00
15272;BME280;7737;51.578;7.268;2023-07-31T01:11:04;100619.91;;;16.74;100.00
15272;BME280;7737;51.578;7.268;2023-07-31T01:13:32;100605.28;;;16.78;100.00
15272;BME280;7737;51.578;7.268;2023-07-31T01:15:59;100608.69;;;16.80;100.00
15272;BME280;7737;51.578;7.268;2023-07-31T01:18:27;100605.28;;;16.78;100.00
15272;BME280;7737;51.578;7.268;2023-07-31T01:21:01;100604.06;;;16.82;100.00
15272;BME280;7737;51.578;7.268;2023-07-31T01:23:46;100601.50;;;16.80;100.00
15272;BME280;7737;51.578;7.268;2023-07-31T01:26:21;100606.75;;;16.82;100.00
15272;BME280;7737;51.578;7.268;2023-07-31T01:28:55;100609.44;;;16.82;100.00
15272;BME280;7737;51.578;7.268;2023-07-31T01:31:24;100603.97;;;16.83;100.00
15272;BME280;7737;51.578;7.268;2023-07-31T01:33:53;100610.41;;;16.81;100.00
15272;BME280;7737;51.578;7.268;2023-07-31T01:36:20;100613.09;;;16.81;100.00
15272;BME280;7737;51.578;7.268;2023-07-31T01:38:46;100614.06;;;16.80;100.00
15272;BME280;7737;51.578;7.268;2023-07-31T01:41:13;100608.94;;;16.77;100.00
15272;BME280;7737;51.578;7.268;2023-07-31T01:43:41;100599.06;;;16.77;100.00
15272;BME280;7737;51.578;7.268;2023-07-31T01:46:07;100594.53;;;16.78;100.00
15272;BME280;7737;51.578;7.268;2023-07-31T01:48:34;100599.78;;;16.79;100.00
15272;BME280;7737;51.578;7.268;2023-07-31T01:51:02;100592.59;;;16.80;100.00
15272;BME280;7737;51.578;7.268;2023-07-31T01:53:30;100597.81;;;16.81;100.00
15272;BME280;7737;51.578;7.268;2023-07-31T01:55:57;100596.22;;;16.79;100.00
15272;BME280;7737;51.578;7.268;2023-07-31T01:58:23;100590.75;;;16.80;100.00
15272;BME280;7737;51.578;7.268;2023-07-31T02:00:51;100589.91;;;16.80;100.00
15272;BME280;7737;51.578;7.268;2023-07-31T02:03:17;100591.72;;;16.79;100.00
15272;BME280;7737;51.578;7.268;2023-07-31T02:05:44;100588.44;;;16.76;100.00
15272;BME280;7737;51.578;7.268;2023-07-31T02:08:11;100590.75;;;16.80;100.00
15272;BME280;7737;51.578;7.268;2023-07-31T02:10:38;100591.84;;;16.78;100.00
15272;BME280;7737;51.578;7.268;2023-07-31T02:13:04;100578.44;;;16.78;100.00
15272;BME280;7737;51.578;7.268;2023-07-31T02:15:31;100582.94;;;16.77;100.00
15272;BME280;7737;51.578;7.268;2023-07-31T02:17:59;100581.84;;;16.80;100.00
15272;BME280;7737;51.578;7.268;2023-07-31T02:20:26;100578.66;;;16.75;100.00
15272;BME280;7737;51.578;7.268;2023-07-31T02:22:52;100584.03;;;16.75;100.00
15272;BME280;7737;51.578;7.268;2023-07-31T02:25:19;100575.03;;;16.76;100.00
15272;BME280;7737;51.578;7.268;2023-07-31T02:27:45;100578.91;;;16.72;100.00
15272;BME280;7737;51.578;7.268;2023-07-31T02:30:12;100577.56;;;16.77;100.00
15272;BME280;7737;51.578;7.268;2023-07-31T02:32:38;100575.97;;;16.75;100.00
15272;BME280;7737;51.578;7.268;2023-07-31T02:35:07;100564.50;;;16.73;100.00
15272;BME280;7737;51.578;7.268;2023-07-31T02:37:34;100565.59;;;16.70;100.00
15272;BME280;7737;51.578;7.268;2023-07-31T02:40:00;100561.81;;;16.73;100.00
15272;BME280;7737;51.578;7.268;2023-07-31T02:42:27;100558.16;;;16.74;100.00
15272;BME280;7737;51.578;7.268;2023-07-31T02:44:53;100549.50;;;16.70;100.00
15272;BME280;7737;51.578;7.268;2023-07-31T02:47:21;100554.59;;;16.73;100.00
15272;BME280;7737;51.578;7.268;2023-07-31T02:49:47;100558.16;;;16.74;100.00
15272;BME280;7737;51.578;7.268;2023-07-31T02:52:15;100545.72;;;16.73;100.00
15272;BME280;7737;51.578;7.268;2023-07-31T02:54:42;100549.59;;;16.69;100.00
15272;BME280;7737;51.578;7.268;2023-07-31T02:57:09;100546.69;;;16.72;100.00
15272;BME280;7737;51.578;7.268;2023-07-31T02:59:35;100546.69;;;16.72;100.00
15272;BME280;7737;51.578;7.268;2023-07-31T03:02:02;100541.94;;;16.75;100.00
15272;BME280;7737;51.578;7.268;2023-07-31T03:04:29;100529.47;;;16.74;100.00
15272;BME280;7737;51.578;7.268;2023-07-31T03:06:55;100524.09;;;16.74;100.00
15272;BME280;7737;51.578;7.268;2023-07-31T03:09:23;100528.63;;;16.74;100.00
15272;BME280;7737;51.578;7.268;2023-07-31T03:11:49;100525.22;;;16.72;100.00
15272;BME280;7737;51.578;7.268;2023-07-31T03:14:16;100526.69;;;16.76;100.00
15272;BME280;7737;51.578;7.268;2023-07-31T03:16:42;100533.75;;;16.77;100.00
15272;BME280;7737;51.578;7.268;2023-07-31T03:19:09;100513.38;;;16.74;100.00
15272;BME280;7737;51.578;7.268;2023-07-31T03:21:35;100516.69;;;16.78;100.00
15272;BME280;7737;51.578;7.268;2023-07-31T03:24:02;100517.88;;;16.74;100.00
15272;BME280;7737;51.578;7.268;2023-07-31T03:26:32;100510.59;;;16.76;100.00
15272;BME280;7737;51.578;7.268;2023-07-31T03:28:59;100513.38;;;16.74;100.00
15272;BME280;7737;51.578;7.268;2023-07-31T03:31:25;100507.38;;;16.71;100.00
15272;BME280;7737;51.578;7.268;2023-07-31T03:33:51;100509.22;;;16.70;100.00
15272;BME280;7737;51.578;7.268;2023-07-31T03:36:18;100511.66;;;16.73;100.00
15272;BME280;7737;51.578;7.268;2023-07-31T03:38:46;100525.59;;;16.78;100.00
15272;BME280;7737;51.578;7.268;2023-07-31T03:41:12;100524.97;;;16.75;100.00
15272;BME280;7737;51.578;7.268;2023-07-31T03:43:40;100517.03;;;16.73;100.00
15272;BME280;7737;51.578;7.268;2023-07-31T03:46:06;100511.41;;;16.76;100.00
15272;BME280;7737;51.578;7.268;2023-07-31T03:48:33;100512.50;;;16.74;100.00
15272;BME280;7737;51.578;7.268;2023-07-31T03:50:59;100504.13;;;16.78;100.00
15272;BME280;7737;51.578;7.268;2023-07-31T03:53:26;100510.59;;;16.76;100.00
15272;BME280;7737;51.578;7.268;2023-07-31T03:55:53;100506.66;;;16.80;100.00
15272;BME280;7737;51.578;7.268;2023-07-31T03:58:19;100499.34;;;16.82;100.00
15272;BME280;7737;51.578;7.268;2023-07-31T04:00:47;100489.59;;;16.81;100.00
15272;BME280;7737;51.578;7.268;2023-07-31T04:03:13;100491.19;;;16.83;100.00
15272;BME280;7737;51.578;7.268;2023-07-31T04:05:40;100489.59;;;16.81;100.00
15272;BME280;7737;51.578;7.268;2023-07-31T04:08:06;100486.41;;;16.87;100.00
15272;BME280;7737;51.578;7.268;2023-07-31T04:10:33;100484.47;;;16.89;100.00
15272;BME280;7737;51.578;7.268;2023-07-31T04:13:00;100488.00;;;16.89;100.00
15272;BME280;7737;51.578;7.268;2023-07-31T04:15:26;100479.84;;;16.91;100.00
15272;BME280;7737;51.578;7.268;2023-07-31T04:17:54;100476.16;;;16.92;100.00
15272;BME280;7737;51.578;7.268;2023-07-31T04:20:21;100484.22;;;16.92;100.00
15272;BME280;7737;51.578;7.268;2023-07-31T04:22:48;100479.47;;;16.95;100.00
15272;BME280;7737;51.578;7.268;2023-07-31T04:25:14;100472.75;;;17.01;100.00
15272;BME280;7737;51.578;7.268;2023-07-31T04:27:41;100468.22;;;17.01;100.00
15272;BME280;7737;51.578;7.268;2023-07-31T04:30:08;100466.88;;;17.07;100.00
15272;BME280;7737;51.578;7.268;2023-07-31T04:32:34;100461.50;;;17.07;100.00
15272;BME280;7737;51.578;7.268;2023-07-31T04:35:03;100453.69;;;17.04;100.00
15272;BME280;7737;51.578;7.268;2023-07-31T04:37:30;100452.22;;;17.11;100.00
15272;BME280;7737;51.578;7.268;2023-07-31T04:39:56;100451.97;;;17.14;100.00
15272;BME280;7737;51.578;7.268;2023-07-31T04:42:23;100462.72;;;17.14;100.00
15272;BME280;7737;51.578;7.268;2023-07-31T04:44:50;100453.94;;;17.12;100.00
15272;BME280;7737;51.578;7.268;2023-07-31T04:47:18;100449.16;;;17.16;100.00
15272;BME280;7737;51.578;7.268;2023-07-31T04:49:44;100447.47;;;17.15;100.00
15272;BME280;7737;51.578;7.268;2023-07-31T04:52:12;100444.41;;;17.19;100.00
15272;BME280;7737;51.578;7.268;2023-07-31T04:54:39;100448.81;;;17.20;100.00
15272;BME280;7737;51.578;7.268;2023-07-31T04:57:06;100454.53;;;17.16;100.00
15272;BME280;7737;51.578;7.268;2023-07-31T04:59:32;100448.31;;;17.15;100.00
15272;BME280;7737;51.578;7.268;2023-07-31T05:01:59;100450.41;;;17.12;100.00
15272;BME280;7737;51.578;7.268;2023-07-31T05:04:25;100449.53;;;17.11;100.00
15272;BME280;7737;51.578;7.268;2023-07-31T05:06:52;100443.44;;;17.09;100.00
15272;BME280;7737;51.578;7.268;2023-07-31T05:09:20;100446.00;;;17.11;100.00
15272;BME280;7737;51.578;7.268;2023-07-31T05:11:46;100434.66;;;17.07;100.00
15272;BME280;7737;51.578;7.268;2023-07-31T05:14:13;100440.63;;;17.11;100.00
15272;BME280;7737;51.578;7.268;2023-07-31T05:16:41;100433.41;;;17.11;100.00
15272;BME280;7737;51.578;7.268;2023-07-31T05:19:07;100434.13;;;17.13;100.00
15272;BME280;7737;51.578;7.268;2023-07-31T05:21:34;100437.09;;;17.10;100.00
15272;BME280;7737;51.578;7.268;2023-07-31T05:24:00;100437.94;;;17.11;100.00
15272;BME280;7737;51.578;7.268;2023-07-31T05:26:28;100430.97;;;17.19;100.00
15272;BME280;7737;51.578;7.268;2023-07-31T05:28:55;100424.63;;;17.20;100.00
15272;BME280;7737;51.578;7.268;2023-07-31T05:31:21;100428.03;;;17.22;100.00
15272;BME280;7737;51.578;7.268;2023-07-31T05:33:49;100427.41;;;17.30;100.00
15272;BME280;7737;51.578;7.268;2023-07-31T05:36:16;100427.78;;;17.25;100.00
15272;BME280;7737;51.578;7.268;2023-07-31T05:38:43;100422.41;;;17.25;100.00
15272;BME280;7737;51.578;7.268;2023-07-31T05:41:11;100426.31;;;17.21;100.00
15272;BME280;7737;51.578;7.268;2023-07-31T05:43:39;100410.81;;;17.25;100.00
15272;BME280;7737;51.578;7.268;2023-07-31T05:46:06;100410.94;;;17.23;100.00
15272;BME280;7737;51.578;7.268;2023-07-31T05:48:34;100413.16;;;17.18;100.00
15272;BME280;7737;51.578;7.268;2023-07-31T05:51:01;100409.00;;;17.14;100.00
15272;BME280;7737;51.578;7.268;2023-07-31T05:53:27;100407.78;;;17.18;100.00
15272;BME280;7737;51.578;7.268;2023-07-31T05:55:54;100393.13;;;17.11;100.00
15272;BME280;7737;51.578;7.268;2023-07-31T05:58:21;100394.84;;;17.12;100.00
15272;BME280;7737;51.578;7.268;2023-07-31T06:00:49;100400.56;;;17.19;100.00
15272;BME280;7737;51.578;7.268;2023-07-31T06:03:15;100399.97;;;17.15;100.00
15272;BME280;7737;51.578;7.268;2023-07-31T06:05:42;100404.81;;;17.21;100.00
15272;BME280;7737;51.578;7.268;2023-07-31T06:08:09;100398.00;;;17.17;100.00
15272;BME280;7737;51.578;7.268;2023-07-31T06:10:35;100379.81;;;17.21;100.00
15272;BME280;7737;51.578;7.268;2023-07-31T06:13:02;100403.13;;;17.20;100.00
15272;BME280;7737;51.578;7.268;2023-07-31T06:15:29;100394.06;;;17.21;100.00
15272;BME280;7737;51.578;7.268;2023-07-31T06:17:57;100401.56;;;17.18;100.00
15272;BME280;7737;51.578;7.268;2023-07-31T06:20:24;100412.88;;;17.21;100.00
15272;BME280;7737;51.578;7.268;2023-07-31T06:22:51;100396.53;;;17.13;100.00
15272;BME280;7737;51.578;7.268;2023-07-31T06:25:17;100399.09;;;17.15;100.00
15272;BME280;7737;51.578;7.268;2023-07-31T06:27:44;100402.41;;;17.18;100.00
15272;BME280;7737;51.578;7.268;2023-07-31T06:30:11;100403.13;;;17.20;100.00
15272;BME280;7737;51.578;7.268;2023-07-31T06:32:38;100410.97;;;17.12;100.00
15272;BME280;7737;51.578;7.268;2023-07-31T06:35:07;100403.00;;;17.11;100.00
15272;BME280;7737;51.578;7.268;2023-07-31T06:37:34;100408.03;;;17.15;100.00
15272;BME280;7737;51.578;7.268;2023-07-31T06:40:00;100412.78;;;17.12;100.00
15272;BME280;7737;51.578;7.268;2023-07-31T06:42:27;100409.50;;;17.08;100.00
15272;BME280;7737;51.578;7.268;2023-07-31T06:44:53;100411.22;;;17.09;100.00
15272;BME280;7737;51.578;7.268;2023-07-31T06:47:20;100411.94;;;17.11;100.00
15272;BME280;7737;51.578;7.268;2023-07-31T06:49:46;100409.25;;;17.11;100.00
15272;BME280;7737;51.578;7.268;2023-07-31T06:52:14;100410.72;;;17.15;100.00
15272;BME280;7737;51.578;7.268;2023-07-31T06:54:41;100418.53;;;17.18;100.00
15272;BME280;7737;51.578;7.268;2023-07-31T06:57:07;100424.38;;;17.23;100.00
15272;BME280;7737;51.578;7.268;2023-07-31T06:59:34;100421.06;;;17.20;100.00
15272;BME280;7737;51.578;7.268;2023-07-31T07:02:01;100417.44;;;17.21;100.00
15272;BME280;7737;51.578;7.268;2023-07-31T07:04:27;100420.69;;;17.24;100.00
15272;BME280;7737;51.578;7.268;2023-07-31T07:06:54;100426.78;;;17.26;100.00
15272;BME280;7737;51.578;7.268;2023-07-31T07:09:21;100431.19;;;17.27;100.00
15272;BME280;7737;51.578;7.268;2023-07-31T07:11:48;100429.22;;;17.29;100.00
15272;BME280;7737;51.578;7.268;2023-07-31T07:14:15;100429.97;;;17.31;100.00
15272;BME280;7737;51.578;7.268;2023-07-31T07:16:41;100426.69;;;17.28;100.00
15272;BME280;7737;51.578;7.268;2023-07-31T07:19:08;100433.50;;;17.32;100.00
15272;BME280;7737;51.578;7.268;2023-07-31T07:21:34;100430.22;;;17.28;100.00
15272;BME280;7737;51.578;7.268;2023-07-31T07:24:01;100421.06;;;17.31;100.00
15272;BME280;7737;51.578;7.268;2023-07-31T07:26:29;100429.47;;;17.26;100.00
15272;BME280;7737;51.578;7.268;2023-07-31T07:28:55;100419.22;;;17.31;100.00
15272;BME280;7737;51.578;7.268;2023-07-31T07:31:23;100433.88;;;17.27;100.00
15272;BME280;7737;51.578;7.268;2023-07-31T07:33:49;100429.47;;;17.26;100.00
15272;BME280;7737;51.578;7.268;2023-07-31T07:36:16;100432.91;;;17.28;100.00
15272;BME280;7737;51.578;7.268;2023-07-31T07:38:42;100426.69;;;17.28;100.00
15272;BME280;7737;51.578;7.268;2023-07-31T07:41:09;100424.09;;;17.26;100.00
15272;BME280;7737;51.578;7.268;2023-07-31T07:43:37;100416.00;;;17.37;100.00
15272;BME280;7737;51.578;7.268;2023-07-31T07:46:03;100424.97;;;17.27;100.00
15272;BME280;7737;51.578;7.268;2023-07-31T07:48:30;100417.38;;;17.32;100.00
15272;BME280;7737;51.578;7.268;2023-07-31T07:50:56;100425.06;;;17.36;100.00
15272;BME280;7737;51.578;7.268;2023-07-31T07:53:23;100426.44;;;17.31;100.00
15272;BME280;7737;51.578;7.268;2023-07-31T07:55:49;100423.59;;;17.32;100.00
15272;BME280;7737;51.578;7.268;2023-07-31T07:58:16;100432.13;;;17.37;100.00
15272;BME280;7737;51.578;7.268;2023-07-31T08:00:49;100428.72;;;17.35;100.00
15272;BME280;7737;51.578;7.268;2023-07-31T08:03:16;100430.56;;;17.35;100.00
15272;BME280;7737;51.578;7.268;2023-07-31T08:05:43;100417.97;;;17.35;100.00
15272;BME280;7737;51.578;7.268;2023-07-31T08:08:14;100424.97;;;17.27;100.00
15272;BME280;7737;51.578;7.268;2023-07-31T08:10:40;100412.75;;;17.34;100.00
15272;BME280;7737;51.578;7.268;2023-07-31T08:13:07;100413.69;;;17.55;100.00
15272;BME280;7737;51.578;7.268;2023-07-31T08:15:33;100418.69;;;17.48;100.00
15272;BME280;7737;51.578;7.268;2023-07-31T08:18:01;100411.88;;;17.44;100.00
15272;BME280;7737;51.578;7.268;2023-07-31T08:20:28;100404.28;;;17.49;100.00
15272;BME280;7737;51.578;7.268;2023-07-31T08:22:54;100402.81;;;17.45;100.00
15272;BME280;7737;51.578;7.268;2023-07-31T08:25:21;100407.94;;;17.48;100.00
15272;BME280;7737;51.578;7.268;2023-07-31T08:27:47;100398.78;;;17.40;100.00
15272;BME280;7737;51.578;7.268;2023-07-31T08:30:14;100399.41;;;17.43;100.00
15272;BME280;7737;51.578;7.268;2023-07-31T08:32:40;100402.94;;;17.55;100.00
15272;BME280;7737;51.578;7.268;2023-07-31T08:35:08;100403.25;;;17.50;100.00
15272;BME280;7737;51.578;7.268;2023-07-31T08:37:35;100405.97;;;17.50;100.00
15272;BME280;7737;51.578;7.268;2023-07-31T08:40:02;100400.47;;;17.52;100.00
15272;BME280;7737;51.578;7.268;2023-07-31T08:42:29;100396.81;;;17.53;100.00
15272;BME280;7737;51.578;7.268;2023-07-31T08:44:56;100389.09;;;17.59;100.00
15272;BME280;7737;51.578;7.268;2023-07-31T08:47:23;100393.06;;;17.33;100.00
15272;BME280;7737;51.578;7.268;2023-07-31T08:49:51;100401.84;;;17.46;100.00
15272;BME280;7737;51.578;7.268;2023-07-31T08:52:20;100402.34;;;17.40;100.00
15272;BME280;7737;51.578;7.268;2023-07-31T08:54:46;100400.41;;;17.31;100.00
15272;BME280;7737;51.578;7.268;2023-07-31T08:57:13;100394.16;;;17.42;100.00
15272;BME280;7737;51.578;7.268;2023-07-31T08:59:41;100403.44;;;17.38;100.00
15272;BME280;7737;51.578;7.268;2023-07-31T09:02:09;100400.16;;;17.34;100.00
15272;BME280;7737;51.578;7.268;2023-07-31T09:04:36;100407.97;;;17.37;100.00
15272;BME280;7737;51.578;7.268;2023-07-31T09:07:04;100408.97;;;17.36;100.00
15272;BME280;7737;51.578;7.268;2023-07-31T09:09:33;100407.00;;;17.38;100.00
15272;BME280;7737;51.578;7.268;2023-07-31T09:11:59;100402.56;;;17.48;100.00
15272;BME280;7737;51.578;7.268;2023-07-31T09:14:27;100405.97;;;17.50;100.00
15272;BME280;7737;51.578;7.268;2023-07-31T09:16:55;100402.31;;;17.51;100.00
15272;BME280;7737;51.578;7.268;2023-07-31T09:19:25;100408.81;;;17.38;100.00
15272;BME280;7737;51.578;7.268;2023-07-31T09:21:52;100411.88;;;17.44;100.00
15272;BME280;7737;51.578;7.268;2023-07-31T09:24:25;100415.38;;;17.45;100.00
15272;BME280;7737;51.578;7.268;2023-07-31T09:26:54;100403.69;;;17.35;100.00
15272;BME280;7737;51.578;7.268;2023-07-31T09:29:22;100407.47;;;17.32;100.00
15272;BME280;7737;51.578;7.268;2023-07-31T09:31:50;100407.72;;;17.40;100.00
15272;BME280;7737;51.578;7.268;2023-07-31T09:34:17;100409.03;;;17.46;100.00
15272;BME280;7737;51.578;7.268;2023-07-31T09:36:45;100407.22;;;17.35;100.00
15272;BME280;7737;51.578;7.268;2023-07-31T09:39:13;100397.97;;;17.39;100.00
15272;BME280;7737;51.578;7.268;2023-07-31T09:41:42;100393.06;;;17.44;100.00
15272;BME280;7737;51.578;7.268;2023-07-31T09:44:10;100397.97;;;17.39;100.00
15272;BME280;7737;51.578;7.268;2023-07-31T09:46:37;100396.00;;;17.41;100.00
15272;BME280;7737;51.578;7.268;2023-07-31T09:49:05;100389.91;;;17.39;100.00
15272;BME280;7737;51.578;7.268;2023-07-31T09:51:32;100392.19;;;17.44;100.00
15272;BME280;7737;51.578;7.268;2023-07-31T09:54:03;100386.91;;;17.53;100.00
15272;BME280;7737;51.578;7.268;2023-07-31T09:56:31;100388.75;;;17.53;100.00
15272;BME280;7737;51.578;7.268;2023-07-31T09:58:59;100382.38;;;17.65;100.00
15272;BME280;7737;51.578;7.268;2023-07-31T10:01:28;100388.59;;;17.66;100.00
15272;BME280;7737;51.578;7.268;2023-07-31T10:03:55;100387.13;;;17.50;100.00
15272;BME280;7737;51.578;7.268;2023-07-31T10:06:22;100383.47;;;17.62;100.00
15272;BME280;7737;51.578;7.268;2023-07-31T10:08:51;100387.28;;;17.81;100.00
15272;BME280;7737;51.578;7.268;2023-07-31T10:11:18;100385.91;;;17.66;100.00
15272;BME280;7737;51.578;7.268;2023-07-31T10:13:46;100389.53;;;17.76;100.00
15272;BME280;7737;51.578;7.268;2023-07-31T10:16:13;100379.53;;;17.67;100.00
15272;BME280;7737;51.578;7.268;2023-07-31T10:18:43;100390.09;;;17.79;100.00
15272;BME280;7737;51.578;7.268;2023-07-31T10:21:11;100391.75;;;17.71;100.00
15272;BME280;7737;51.578;7.268;2023-07-31T10:23:38;100390.03;;;17.70;100.00
15272;BME280;7737;51.578;7.268;2023-07-31T10:26:07;100393.28;;;17.84;100.00
15272;BME280;7737;51.578;7.268;2023-07-31T10:28:34;100385.00;;;17.76;100.00
15272;BME280;7737;51.578;7.268;2023-07-31T10:31:03;100380.94;;;17.82;100.00
15272;BME280;7737;51.578;7.268;2023-07-31T10:33:30;100383.91;;;17.79;100.00
15272;BME280;7737;51.578;7.268;2023-07-31T10:36:14;100379.47;;;17.78;100.00
15272;BME280;7737;51.578;7.268;2023-07-31T10:38:41;100374.06;;;17.89;100.00
15272;BME280;7737;51.578;7.268;2023-07-31T10:41:08;100376.84;;;17.87;100.00
15272;BME280;7737;51.578;7.268;2023-07-31T10:43:36;100376.53;;;17.81;100.00
15272;BME280;7737;51.578;7.268;2023-07-31T10:46:06;100377.50;;;17.80;100.00
15272;BME280;7737;51.578;7.268;2023-07-31T10:48:33;100387.56;;;17.78;100.00
15272;BME280;7737;51.578;7.268;2023-07-31T10:51:07;100381.78;;;17.82;100.00
15272;BME280;7737;51.578;7.268;2023-07-31T10:53:36;100382.13;;;17.68;100.00
15272;BME280;7737;51.578;7.268;2023-07-31T10:56:04;100377.91;;;17.75;100.00
15272;BME280;7737;51.578;7.268;2023-07-31T10:58:32;100386.13;;;17.74;100.00
15272;BME280;7737;51.578;7.268;2023-07-31T11:01:01;100375.41;;;17.62;100.00
15272;BME280;7737;51.578;7.268;2023-07-31T11:03:41;100380.78;;;17.62;100.00
15272;BME280;7737;51.578;7.268;2023-07-31T11:06:08;100376.13;;;17.64;100.00
15272;BME280;7737;51.578;7.268;2023-07-31T11:08:41;100376.41;;;17.82;100.00
15272;BME280;7737;51.578;7.268;2023-07-31T11:11:10;100364.31;;;17.77;100.00
15272;BME280;7737;51.578;7.268;2023-07-31T11:13:41;100366.56;;;17.72;100.00
15272;BME280;7737;51.578;7.268;2023-07-31T11:16:08;100372.78;;;17.72;100.00
15272;BME280;7737;51.578;7.268;2023-07-31T11:18:35;100367.50;;;17.82;100.00
15272;BME280;7737;51.578;7.268;2023-07-31T11:21:04;100367.22;;;17.85;100.00
15272;BME280;7737;51.578;7.268;2023-07-31T11:23:30;100372.34;;;17.88;100.00
15272;BME280;7737;51.578;7.268;2023-07-31T11:26:00;100366.13;;;18.08;100.00
15272;BME280;7737;51.578;7.268;2023-07-31T11:28:31;100368.81;;;18.08;100.00
15272;BME280;7737;51.578;7.268;2023-07-31T11:30:58;100363.88;;;18.13;100.00
15272;BME280;7737;51.578;7.268;2023-07-31T11:33:24;100370.56;;;18.18;100.00
15272;BME280;7737;51.578;7.268;2023-07-31T11:35:51;100367.09;;;18.07;100.00
15272;BME280;7737;51.578;7.268;2023-07-31T11:38:24;100365.66;;;18.03;100.00
15272;BME280;7737;51.578;7.268;2023-07-31T11:40:52;100356.34;;;18.07;100.00
15272;BME280;7737;51.578;7.268;2023-07-31T11:43:20;100354.09;;;18.12;100.00
15272;BME280;7737;51.578;7.268;2023-07-31T11:45:48;100356.66;;;18.13;100.00
15272;BME280;7737;51.578;7.268;2023-07-31T11:48:19;100339.66;;;18.13;100.00
15272;BME280;7737;51.578;7.268;2023-07-31T11:50:48;100339.66;;;18.13;100.00
15272;BME280;7737;51.578;7.268;2023-07-31T11:53:17;100343.94;;;18.15;100.00
15272;BME280;7737;51.578;7.268;2023-07-31T11:55:45;100335.19;;;18.23;100.00
15272;BME280;7737;51.578;7.268;2023-07-31T11:58:13;100338.78;;;18.33;100.00
15272;BME280;7737;51.578;7.268;2023-07-31T12:00:42;100327.91;;;18.44;100.00
15272;BME280;7737;51.578;7.268;2023-07-31T12:03:09;100329.91;;;18.42;100.00
15272;BME280;7737;51.578;7.268;2023-07-31T12:05:36;100321.81;;;18.42;100.00
15272;BME280;7737;51.578;7.268;2023-07-31T12:08:08;100331.31;;;18.46;100.00
15272;BME280;7737;51.578;7.268;2023-07-31T12:10:35;100326.59;;;18.59;100.00
15272;BME280;7737;51.578;7.268;2023-07-31T12:13:04;100314.69;;;18.62;100.00
15272;BME280;7737;51.578;7.268;2023-07-31T12:15:37;100315.88;;;18.78;100.00
15272;BME280;7737;51.578;7.268;2023-07-31T12:18:08;100302.56;;;18.77;100.00
15272;BME280;7737;51.578;7.268;2023-07-31T12:20:35;100310.88;;;18.64;100.00
15272;BME280;7737;51.578;7.268;2023-07-31T12:23:02;100301.81;;;18.75;100.00
15272;BME280;7737;51.578;7.268;2023-07-31T12:25:30;100306.09;;;18.77;100.00
15272;BME280;7737;51.578;7.268;2023-07-31T12:27:57;100306.94;;;18.68;100.00
15272;BME280;7737;51.578;7.268;2023-07-31T12:30:28;100306.50;;;18.73;100.00
15272;BME280;7737;51.578;7.268;2023-07-31T12:32:55;100301.38;;;18.70;100.00
15272;BME280;7737;51.578;7.268;2023-07-31T12:35:23;100294.34;;;18.78;100.00
15272;BME280;7737;51.578;7.268;2023-07-31T12:37:50;100299.41;;;18.72;100.00
15272;BME280;7737;51.578;7.268;2023-07-31T12:40:16;100295.44;;;18.66;100.00
15272;BME280;7737;51.578;7.268;2023-07-31T12:42:43;100294.88;;;18.63;100.00
15272;BME280;7737;51.578;7.268;2023-07-31T12:45:10;100296.53;;;18.54;100.00
15272;BME280;7737;51.578;7.268;2023-07-31T12:47:36;100292.59;;;18.58;100.00
15272;BME280;7737;51.578;7.268;2023-07-31T12:50:03;100292.88;;;18.65;100.00
15272;BME280;7737;51.578;7.268;2023-07-31T12:52:31;100283.06;;;18.54;100.00